createdAt,value
2022-09-13T00:01:28.593Z,4.47
2022-09-13T00:03:55.497Z,3.80
2022-09-13T00:06:22.939Z,3.97
2022-09-13T00:08:50.628Z,4.22
2022-09-13T00:11:21.003Z,3.80
2022-09-13T00:13:48.372Z,4.00
2022-09-13T00:16:18.044Z,3.90
2022-09-13T00:18:45.147Z,3.70
2022-09-13T00:21:17.822Z,3.95
2022-09-13T00:23:50.084Z,3.75
2022-09-13T00:26:19.981Z,3.38
2022-09-13T00:28:51.670Z,3.78
2022-09-13T00:31:19.080Z,3.55
2022-09-13T00:33:46.062Z,3.80
2022-09-13T00:36:13.084Z,4.00
2022-09-13T00:38:40.685Z,4.00
2022-09-13T00:41:14.673Z,3.70
2022-09-13T00:43:47.734Z,4.13
2022-09-13T00:46:33.755Z,3.70
2022-09-13T00:49:11.353Z,4.10
2022-09-13T00:51:39.943Z,3.58
2022-09-13T00:54:06.961Z,3.60
2022-09-13T00:56:47.847Z,3.38
2022-09-13T00:59:21.730Z,3.80
2022-09-13T01:01:53.033Z,2.78
2022-09-13T01:04:22.812Z,3.20
2022-09-13T01:06:52.143Z,3.70
2022-09-13T01:09:19.186Z,3.28
2022-09-13T01:11:55.721Z,3.38
2022-09-13T01:14:24.261Z,3.45
2022-09-13T01:16:52.488Z,3.00
2022-09-13T01:19:19.388Z,3.10
2022-09-13T01:22:21.353Z,3.15
2022-09-13T01:25:06.706Z,2.78
2022-09-13T01:27:47.249Z,3.50
2022-09-13T01:30:25.359Z,3.38
2022-09-13T01:33:02.068Z,3.05
2022-09-13T01:35:53.868Z,3.33
2022-09-13T01:38:29.483Z,3.13
2022-09-13T01:41:34.199Z,3.17
2022-09-13T01:44:01.141Z,3.30
2022-09-13T01:46:44.093Z,3.00
2022-09-13T01:49:43.623Z,3.28
2022-09-13T01:52:22.503Z,3.20
2022-09-13T01:55:14.354Z,2.95
2022-09-13T01:57:48.597Z,3.28
2022-09-13T02:00:18.521Z,3.20
2022-09-13T02:02:53.640Z,3.33
2022-09-13T02:05:58.148Z,3.60
2022-09-13T02:08:34.215Z,2.92
2022-09-13T02:11:12.375Z,2.92
2022-09-13T02:13:47.161Z,3.40
2022-09-13T02:16:29.371Z,3.28
2022-09-13T02:19:02.177Z,2.85
2022-09-13T02:21:36.533Z,2.33
2022-09-13T02:24:09.051Z,3.22
2022-09-13T02:26:38.740Z,3.28
2022-09-13T02:29:12.314Z,3.50
2022-09-13T02:31:57.350Z,3.28
2022-09-13T02:34:32.113Z,3.10
2022-09-13T02:37:01.672Z,3.22
2022-09-13T02:39:31.626Z,3.20
2022-09-13T02:42:19.418Z,2.88
2022-09-13T02:44:53.892Z,2.65
2022-09-13T02:47:32.618Z,2.70
2022-09-13T02:50:19.556Z,2.30
2022-09-13T02:53:08.949Z,2.45
2022-09-13T02:55:46.010Z,2.83
2022-09-13T02:58:26.886Z,2.80
2022-09-13T03:00:54.801Z,2.45
2022-09-13T03:03:22.018Z,2.53
2022-09-13T03:05:49.127Z,2.35
2022-09-13T03:08:18.444Z,2.90
2022-09-13T03:10:58.927Z,2.35
2022-09-13T03:13:28.726Z,3.13
2022-09-13T03:16:43.014Z,3.13
2022-09-13T03:19:45.740Z,3.50
2022-09-13T03:22:34.002Z,3.63
2022-09-13T03:25:11.680Z,3.35
2022-09-13T03:27:41.281Z,2.78
2022-09-13T03:30:11.729Z,2.97
2022-09-13T03:33:23.598Z,2.95
2022-09-13T03:36:21.917Z,3.25
2022-09-13T03:39:26.357Z,3.55
2022-09-13T03:41:58.502Z,4.18
2022-09-13T03:44:27.151Z,3.55
2022-09-13T03:46:58.671Z,3.92
2022-09-13T03:49:27.951Z,3.63
2022-09-13T03:51:55.597Z,3.40
2022-09-13T03:54:32.543Z,4.03
2022-09-13T03:57:17.512Z,3.75
2022-09-13T03:59:55.801Z,3.97
2022-09-13T04:02:25.883Z,3.70
2022-09-13T04:04:53.460Z,4.35
2022-09-13T04:07:22.859Z,3.47
2022-09-13T04:09:50.218Z,4.70
2022-09-13T04:12:18.211Z,3.95
2022-09-13T04:14:45.278Z,3.90
2022-09-13T04:17:13.535Z,3.08
2022-09-13T04:19:40.836Z,3.47
2022-09-13T04:22:08.044Z,3.28
2022-09-13T04:24:36.411Z,3.22
2022-09-13T04:27:03.396Z,3.00
2022-09-13T04:29:31.830Z,3.00
2022-09-13T04:31:59.345Z,3.20
2022-09-13T04:34:26.849Z,2.90
2022-09-13T04:36:54.122Z,3.10
2022-09-13T04:39:22.403Z,2.90
2022-09-13T04:41:59.670Z,3.10
2022-09-13T04:44:35.480Z,3.50
2022-09-13T04:47:02.992Z,3.25
2022-09-13T04:49:30.251Z,3.30
2022-09-13T04:51:59.087Z,3.20
2022-09-13T04:54:30.630Z,3.00
2022-09-13T04:57:01.406Z,3.15
2022-09-13T04:59:28.852Z,3.08
2022-09-13T05:01:56.335Z,3.25
2022-09-13T05:04:23.645Z,3.42
2022-09-13T05:06:50.725Z,3.42
2022-09-13T05:09:17.675Z,3.30
2022-09-13T05:11:45.267Z,3.25
2022-09-13T05:14:13.121Z,3.38
2022-09-13T05:16:40.834Z,3.72
2022-09-13T05:19:08.060Z,3.45
2022-09-13T05:21:35.648Z,3.45
2022-09-13T05:24:04.252Z,3.67
2022-09-13T05:26:34.544Z,3.20
2022-09-13T05:29:01.806Z,3.35
2022-09-13T05:31:43.585Z,3.63
2022-09-13T05:34:16.041Z,3.35
2022-09-13T05:36:43.859Z,3.05
2022-09-13T05:39:48.386Z,3.40
2022-09-13T05:42:17.577Z,3.00
2022-09-13T05:44:52.173Z,3.10
2022-09-13T05:47:29.148Z,3.58
2022-09-13T05:51:29.587Z,4.30
2022-09-13T06:00:17.884Z,7.82
2022-09-13T06:02:50.850Z,9.27
2022-09-13T06:05:18.229Z,9.98
2022-09-13T06:07:45.266Z,9.80
2022-09-13T06:10:12.477Z,7.95
2022-09-13T06:12:39.335Z,6.95
2022-09-13T06:15:14.194Z,7.13
2022-09-13T06:17:41.708Z,8.98
2022-09-13T06:20:10.272Z,11.30
2022-09-13T06:22:37.556Z,7.35
2022-09-13T06:25:08.530Z,6.50
2022-09-13T06:27:35.622Z,6.30
2022-09-13T06:30:02.675Z,5.80
2022-09-13T06:32:30.294Z,2.95
2022-09-13T06:35:02.019Z,2.90
2022-09-13T06:37:42.095Z,3.90
2022-09-13T06:40:21.808Z,3.90
2022-09-13T06:50:40.248Z,3.35
2022-09-13T07:02:20.448Z,3.00
2022-09-13T07:06:22.036Z,2.85
2022-09-13T07:31:28.628Z,2.28
2022-09-13T07:50:15.038Z,1.52
2022-09-13T07:52:59.366Z,1.48
2022-09-13T07:58:36.857Z,1.40
2022-09-13T08:01:48.454Z,1.55
2022-09-13T08:04:22.648Z,1.15
2022-09-13T08:06:50.170Z,1.30
2022-09-13T08:09:18.004Z,1.40
2022-09-13T08:11:53.597Z,1.20
2022-09-13T08:14:25.656Z,1.10
2022-09-13T08:16:58.230Z,1.20
2022-09-13T08:19:54.289Z,1.30
2022-09-13T08:22:31.273Z,1.20
2022-09-13T08:25:01.687Z,1.50
2022-09-13T08:27:29.761Z,1.60
2022-09-13T08:30:06.832Z,1.98
2022-09-13T08:32:44.070Z,1.70
2022-09-13T08:47:12.168Z,1.50
2022-09-13T08:53:55.052Z,1.70
2022-09-13T08:56:35.348Z,1.50
2022-09-13T08:59:27.637Z,1.58
2022-09-13T09:05:19.422Z,1.10
2022-09-13T09:08:08.733Z,1.60
2022-09-13T09:11:29.079Z,1.30
2022-09-13T09:14:16.281Z,1.38
2022-09-13T09:16:55.384Z,1.30
2022-09-13T09:19:36.624Z,1.10
2022-09-13T09:22:29.189Z,1.35
2022-09-13T09:24:59.114Z,1.40
2022-09-13T09:27:51.666Z,0.98
2022-09-13T09:30:23.705Z,1.30
2022-09-13T09:33:21.226Z,1.45
2022-09-13T09:36:28.379Z,1.17
2022-09-13T09:47:30.700Z,1.30
2022-09-13T09:50:59.904Z,1.10
2022-09-13T09:57:22.972Z,1.58
2022-09-13T09:59:50.813Z,1.38
2022-09-13T10:02:24.548Z,1.05
2022-09-13T10:05:01.526Z,1.45
2022-09-13T10:07:33.563Z,1.35
2022-09-13T10:13:12.715Z,1.17
2022-09-13T10:16:28.758Z,1.40
2022-09-13T10:19:56.450Z,1.65
2022-09-13T10:26:15.528Z,1.27
2022-09-13T10:30:12.774Z,1.27
2022-09-13T10:33:54.383Z,1.23
2022-09-13T10:35:42.174Z,1.10
2022-09-13T10:39:16.332Z,1.45
2022-09-13T10:43:15.473Z,1.17
2022-09-13T11:08:43.347Z,1.58
2022-09-13T11:15:47.396Z,1.40
2022-09-13T11:41:23.273Z,1.73
2022-09-13T11:47:28.927Z,2.00
2022-09-13T11:50:17.922Z,1.65
2022-09-13T11:53:25.008Z,1.60
2022-09-13T11:56:07.622Z,1.90
2022-09-13T11:58:49.453Z,1.77
2022-09-13T12:01:43.833Z,2.78
2022-09-13T12:04:37.453Z,2.63
2022-09-13T12:07:20.004Z,4.15
2022-09-13T12:09:56.152Z,2.28
2022-09-13T12:12:29.280Z,2.13
2022-09-13T12:15:03.543Z,1.55
2022-09-13T12:17:53.145Z,1.50
2022-09-13T12:20:27.760Z,1.80
2022-09-13T12:26:02.073Z,1.90
2022-09-13T12:29:03.812Z,3.13
2022-09-13T12:31:32.849Z,2.25
2022-09-13T12:34:05.066Z,2.35
2022-09-13T12:37:02.580Z,2.33
2022-09-13T12:40:15.480Z,2.53
2022-09-13T12:42:58.995Z,2.85
2022-09-13T12:45:47.714Z,2.58
2022-09-13T12:48:28.581Z,2.80
2022-09-13T12:54:11.745Z,2.40
2022-09-13T12:56:48.342Z,2.70
2022-09-13T12:59:57.845Z,2.30
2022-09-13T13:02:33.179Z,2.45
2022-09-13T13:05:28.886Z,3.00
2022-09-13T13:08:06.175Z,3.00
2022-09-13T13:10:41.122Z,3.35
2022-09-13T13:13:20.275Z,2.83
2022-09-13T13:15:52.994Z,2.78
2022-09-13T13:18:26.069Z,3.65
2022-09-13T13:20:58.935Z,3.00
2022-09-13T13:23:35.658Z,3.42
2022-09-13T13:26:21.348Z,3.08
2022-09-13T13:28:54.444Z,2.80
2022-09-13T13:31:24.905Z,3.10
2022-09-13T13:34:02.970Z,3.20
2022-09-13T13:36:42.413Z,3.83
2022-09-13T13:39:27.642Z,3.53
2022-09-13T13:42:03.650Z,3.60
2022-09-13T13:44:32.390Z,3.65
2022-09-13T13:47:08.381Z,3.30
2022-09-13T13:49:42.212Z,3.33
2022-09-13T13:52:09.497Z,2.80
2022-09-13T13:54:44.195Z,3.47
2022-09-13T13:57:26.434Z,3.72
2022-09-13T14:00:16.504Z,3.05
2022-09-13T14:02:49.539Z,3.00
2022-09-13T14:05:54.644Z,3.05
2022-09-13T14:08:36.171Z,3.85
2022-09-13T14:11:11.530Z,3.10
2022-09-13T14:14:17.324Z,3.30
2022-09-13T14:16:55.930Z,3.25
2022-09-13T14:19:24.764Z,3.85
2022-09-13T14:22:20.696Z,3.47
2022-09-13T14:24:56.233Z,3.58
2022-09-13T14:27:28.043Z,3.28
2022-09-13T14:29:59.095Z,3.60
2022-09-13T14:32:36.258Z,3.63
2022-09-13T14:35:21.872Z,3.30
2022-09-13T14:37:49.246Z,3.72
2022-09-13T14:40:22.708Z,3.55
2022-09-13T14:42:55.423Z,4.20
2022-09-13T14:45:33.409Z,4.18
2022-09-13T14:48:15.741Z,3.67
2022-09-13T14:50:51.982Z,3.80
2022-09-13T14:55:59.742Z,3.40
2022-09-13T14:58:37.322Z,3.72
2022-09-13T15:01:09.507Z,3.42
2022-09-13T15:03:40.594Z,3.40
2022-09-13T15:06:10.690Z,3.28
2022-09-13T15:08:45.329Z,3.75
2022-09-13T15:11:38.470Z,3.20
2022-09-13T15:14:39.868Z,3.17
2022-09-13T15:17:09.986Z,3.63
2022-09-13T15:19:53.493Z,3.30
2022-09-13T15:22:27.742Z,3.30
2022-09-13T15:24:57.628Z,3.45
2022-09-13T15:27:31.189Z,3.08
2022-09-13T15:30:02.804Z,3.58
2022-09-13T15:32:43.474Z,3.55
2022-09-13T15:35:27.803Z,3.67
2022-09-13T15:38:08.797Z,3.83
2022-09-13T15:40:45.425Z,3.53
2022-09-13T15:43:14.334Z,3.50
2022-09-13T15:45:42.090Z,3.63
2022-09-13T15:48:23.803Z,3.40
2022-09-13T15:51:09.237Z,3.25
2022-09-13T15:53:38.857Z,3.40
2022-09-13T15:56:07.825Z,3.35
2022-09-13T15:58:39.195Z,3.70
2022-09-13T16:01:06.715Z,3.70
2022-09-13T16:03:33.789Z,4.05
2022-09-13T16:06:00.804Z,4.22
2022-09-13T16:08:27.643Z,3.97
2022-09-13T16:10:54.979Z,4.13
2022-09-13T16:13:21.828Z,4.55
2022-09-13T16:15:49.318Z,3.60
2022-09-13T16:18:16.997Z,4.13
2022-09-13T16:20:44.567Z,4.00
2022-09-13T16:23:12.017Z,3.90
2022-09-13T16:25:41.316Z,4.65
2022-09-13T16:28:08.997Z,6.20
2022-09-13T16:30:36.898Z,11.00
2022-09-13T16:33:04.678Z,6.07
2022-09-13T16:35:33.294Z,8.70
2022-09-13T16:38:01.012Z,5.43
2022-09-13T16:40:28.242Z,5.15
2022-09-13T16:42:56.041Z,6.15
2022-09-13T16:45:23.931Z,7.03
2022-09-13T16:47:52.374Z,8.13
2022-09-13T16:50:20.027Z,6.38
2022-09-13T16:52:46.989Z,6.35
2022-09-13T16:55:13.892Z,4.32
2022-09-13T16:57:42.060Z,7.65
2022-09-13T17:00:11.756Z,6.10
2022-09-13T17:02:39.568Z,4.32
2022-09-13T17:05:09.073Z,4.65
2022-09-13T17:07:37.169Z,7.13
2022-09-13T17:10:06.278Z,8.65
2022-09-13T17:12:33.953Z,7.60
2022-09-13T17:15:01.138Z,7.40
2022-09-13T17:17:28.103Z,9.48
2022-09-13T17:19:55.194Z,5.78
2022-09-13T17:22:22.034Z,6.00
2022-09-13T17:24:49.051Z,5.10
2022-09-13T17:27:16.078Z,4.90
2022-09-13T17:29:43.189Z,5.05
2022-09-13T17:32:10.664Z,5.22
2022-09-13T17:34:37.660Z,9.40
2022-09-13T17:37:06.896Z,6.63
2022-09-13T17:39:34.347Z,6.60
2022-09-13T17:42:01.316Z,7.07
2022-09-13T17:44:28.408Z,6.88
2022-09-13T17:46:55.826Z,5.10
2022-09-13T17:49:22.769Z,4.63
2022-09-13T17:51:50.166Z,4.50
2022-09-13T17:54:17.347Z,5.78
2022-09-13T17:56:45.557Z,4.90
2022-09-13T17:59:19.579Z,4.72
2022-09-13T18:01:49.661Z,4.45
2022-09-13T18:04:18.466Z,5.15
2022-09-13T18:06:46.018Z,4.22
2022-09-13T18:09:14.075Z,4.40
2022-09-13T18:11:42.057Z,4.60
2022-09-13T18:14:16.777Z,4.70
2022-09-13T18:16:43.932Z,5.35
2022-09-13T18:19:11.766Z,4.82
2022-09-13T18:21:38.888Z,4.72
2022-09-13T18:24:06.978Z,4.45
2022-09-13T18:26:35.342Z,5.00
2022-09-13T18:29:07.955Z,4.63
2022-09-13T18:31:36.654Z,5.15
2022-09-13T18:34:06.272Z,4.30
2022-09-13T18:36:35.162Z,4.80
2022-09-13T18:39:05.020Z,5.45
2022-09-13T18:41:42.526Z,4.20
2022-09-13T18:44:11.178Z,4.30
2022-09-13T18:46:39.522Z,5.35
2022-09-13T18:49:07.966Z,5.10
2022-09-13T18:51:40.602Z,4.60
2022-09-13T18:54:10.581Z,5.10
2022-09-13T18:56:37.662Z,5.50
2022-09-13T18:59:07.025Z,5.38
2022-09-13T19:01:36.831Z,4.65
2022-09-13T19:04:07.381Z,4.43
2022-09-13T19:06:43.283Z,4.65
2022-09-13T19:09:11.344Z,4.50
2022-09-13T19:11:48.861Z,4.70
2022-09-13T19:14:23.200Z,5.47
2022-09-13T19:16:51.275Z,5.15
2022-09-13T19:19:19.212Z,4.93
2022-09-13T19:21:46.838Z,4.85
2022-09-13T19:24:18.713Z,5.50
2022-09-13T19:26:48.148Z,5.45
2022-09-13T19:29:17.987Z,4.93
2022-09-13T19:31:48.393Z,5.25
2022-09-13T19:34:17.717Z,5.30
2022-09-13T19:36:45.194Z,6.72
2022-09-13T19:39:12.479Z,6.53
2022-09-13T19:41:40.413Z,4.82
2022-09-13T19:44:08.905Z,5.18
2022-09-13T19:46:38.442Z,4.82
2022-09-13T19:49:08.690Z,5.07
2022-09-13T19:51:38.453Z,4.57
2022-09-13T19:54:07.778Z,3.95
2022-09-13T19:56:39.967Z,4.63
2022-09-13T19:59:09.508Z,5.25
2022-09-13T20:01:39.465Z,5.85
2022-09-13T20:04:10.323Z,5.40
2022-09-13T20:06:40.217Z,5.82
2022-09-13T20:09:08.858Z,4.95
2022-09-13T20:11:41.432Z,4.38
2022-09-13T20:14:11.025Z,5.90
2022-09-13T20:16:39.942Z,5.20
2022-09-13T20:19:36.317Z,5.25
2022-09-13T20:21:57.873Z,4.95
2022-09-13T20:24:25.645Z,4.15
2022-09-13T20:26:52.937Z,4.82
2022-09-13T20:29:20.749Z,4.80
2022-09-13T20:31:47.690Z,5.85
2022-09-13T20:34:15.187Z,5.15
2022-09-13T20:36:44.679Z,3.97
2022-09-13T20:39:11.981Z,4.45
2022-09-13T20:41:38.756Z,3.67
2022-09-13T20:44:07.726Z,4.47
2022-09-13T20:46:34.911Z,4.40
2022-09-13T20:49:01.953Z,4.25
2022-09-13T20:51:33.956Z,4.40
2022-09-13T20:54:02.009Z,4.18
2022-09-13T20:56:31.131Z,4.57
2022-09-13T20:59:00.642Z,4.35
2022-09-13T21:01:29.725Z,4.70
2022-09-13T21:03:57.655Z,4.70
2022-09-13T21:06:26.912Z,4.75
2022-09-13T21:08:56.529Z,4.85
2022-09-13T21:11:30.319Z,4.70
2022-09-13T21:14:03.436Z,4.60
2022-09-13T21:16:33.651Z,4.45
2022-09-13T21:19:01.425Z,4.50
2022-09-13T21:21:40.537Z,4.47
2022-09-13T21:24:11.281Z,5.25
2022-09-13T21:26:42.682Z,3.95
2022-09-13T21:29:11.498Z,4.47
2022-09-13T21:31:39.151Z,4.97
2022-09-13T21:34:08.714Z,4.32
2022-09-13T21:36:36.474Z,4.85
2022-09-13T21:39:04.895Z,4.28
2022-09-13T21:41:32.222Z,5.13
2022-09-13T21:43:59.319Z,4.45
2022-09-13T21:46:32.497Z,4.35
2022-09-13T21:49:01.584Z,5.30
2022-09-13T21:51:36.994Z,5.28
2022-09-13T21:54:06.767Z,5.83
2022-09-13T21:56:37.795Z,5.57
2022-09-13T21:59:08.588Z,5.40
2022-09-13T22:01:39.161Z,5.30
2022-09-13T22:04:07.542Z,4.47
2022-09-13T22:06:37.233Z,4.88
2022-09-13T22:09:07.642Z,4.43
2022-09-13T22:11:46.433Z,4.78
2022-09-13T22:14:15.626Z,4.60
2022-09-13T22:16:44.938Z,4.10
2022-09-13T22:19:31.713Z,5.13
2022-09-13T22:22:00.298Z,4.97
2022-09-13T22:24:30.101Z,4.75
2022-09-13T22:26:58.336Z,4.03
2022-09-13T22:29:25.693Z,4.63
2022-09-13T22:31:53.155Z,3.75
2022-09-13T22:34:23.547Z,3.88
2022-09-13T22:36:50.692Z,3.83
2022-09-13T22:39:18.113Z,4.20
2022-09-13T22:41:45.790Z,3.53
2022-09-13T22:44:13.534Z,3.90
2022-09-13T22:46:42.990Z,3.58
2022-09-13T22:49:15.133Z,3.60
2022-09-13T22:51:45.294Z,3.95
2022-09-13T22:54:13.593Z,3.85
2022-09-13T22:56:40.689Z,4.32
2022-09-13T22:59:12.539Z,3.75
2022-09-13T23:01:39.542Z,3.92
2022-09-13T23:04:07.164Z,3.40
2022-09-13T23:06:35.502Z,3.60
2022-09-13T23:09:04.789Z,4.03
2022-09-13T23:11:37.376Z,3.70
2022-09-13T23:14:10.268Z,3.67
2022-09-13T23:16:45.313Z,3.67
2022-09-13T23:19:13.729Z,3.83
2022-09-13T23:21:42.202Z,4.07
2022-09-13T23:24:14.012Z,3.65
2022-09-13T23:26:41.980Z,3.25
2022-09-13T23:29:13.359Z,3.70
2022-09-13T23:31:40.817Z,3.47
2022-09-13T23:34:09.455Z,3.13
2022-09-13T23:36:41.430Z,3.60
2022-09-13T23:39:12.597Z,3.35
2022-09-13T23:41:39.581Z,3.10
2022-09-13T23:44:06.562Z,3.42
2022-09-13T23:46:33.589Z,2.90
2022-09-13T23:49:00.491Z,3.42
2022-09-13T23:51:27.893Z,3.50
2022-09-13T23:53:57.354Z,3.30
2022-09-13T23:56:26.254Z,3.67
2022-09-13T23:58:53.317Z,3.78
